Time,TemperatureF,DewpointF,PressureIn,WindDirection,WindDirectionDegrees,WindSpeedMPH,WindSpeedGustMPH,Humidity,HourlyPrecipIn,Conditions,Clouds,dailyrainin,SolarRadiationWatts/m^2,SoftwareType,DateUTC
2013-06-07 00:06:00,67.4,51.0,29.79,South,178,0.0,-999.0,55,-99.99,,,0.03,0,weatherlink.com 1.10,2013-06-07 07:06:00,
2013-06-07 00:21:00,67.2,50.0,29.79,South,178,0.0,-999.0,55,-99.99,,,0.00,0,weatherlink.com 1.10,2013-06-07 07:21:00,
2013-06-07 00:36:00,67.0,50.0,29.79,South,178,0.0,-999.0,55,-99.99,,,0.00,0,weatherlink.com 1.10,2013-06-07 07:36:00,
2013-06-07 00:51:00,66.8,50.0,29.79,South,178,0.0,-999.0,56,-99.99,,,0.00,0,weatherlink.com 1.10,2013-06-07 07:51:00,
2013-06-07 01:21:00,66.7,50.0,29.79,South,178,0.0,-999.0,56,-99.99,,,0.00,0,weatherlink.com 1.10,2013-06-07 08:21:00,
2013-06-07 01:36:00,66.6,50.0,29.79,South,178,0.0,-999.0,55,-99.99,,,0.00,0,weatherlink.com 1.10,2013-06-07 08:36:00,
2013-06-07 01:51:00,66.4,49.0,29.78,South,178,0.0,-999.0,54,-99.99,,,0.00,0,weatherlink.com 1.10,2013-06-07 08:51:00,
2013-06-07 02:06:00,66.2,49.0,29.77,South,178,0.0,-999.0,55,-99.99,,,0.00,0,weatherlink.com 1.10,2013-06-07 09:06:00,
2013-06-07 02:21:00,66.1,49.0,29.77,South,178,0.0,-999.0,55,-99.99,,,0.00,0,weatherlink.com 1.10,2013-06-07 09:21:00,
2013-06-07 02:36:00,66.1,50.0,29.76,South,178,0.0,-999.0,56,-99.99,,,0.00,0,weatherlink.com 1.10,2013-06-07 09:36:00,
2013-06-07 02:51:00,66.2,49.0,29.76,South,178,0.0,-999.0,55,-99.99,,,0.00,0,weatherlink.com 1.10,2013-06-07 09:51:00,
2013-06-07 03:06:00,66.2,49.0,29.76,South,178,0.0,-999.0,55,-99.99,,,0.00,0,weatherlink.com 1.10,2013-06-07 10:06:00,
2013-06-07 03:21:00,66.2,49.0,29.76,South,178,0.0,-999.0,55,-99.99,,,0.00,0,weatherlink.com 1.10,2013-06-07 10:21:00,
2013-06-07 03:36:00,66.0,49.0,29.76,South,178,0.0,-999.0,54,-99.99,,,0.00,0,weatherlink.com 1.10,2013-06-07 10:36:00,
2013-06-07 03:51:00,65.9,49.0,29.76,South,178,0.0,-999.0,54,-99.99,,,0.00,0,weatherlink.com 1.10,2013-06-07 10:51:00,
2013-06-07 04:06:00,65.9,49.0,29.76,South,178,0.0,-999.0,54,-99.99,,,0.00,0,weatherlink.com 1.10,2013-06-07 11:06:00,
2013-06-07 04:21:00,65.9,48.0,29.76,South,178,0.0,-999.0,53,-99.99,,,0.00,0,weatherlink.com 1.10,2013-06-07 11:21:00,
2013-06-07 04:36:00,65.5,48.0,29.76,South,178,0.0,-999.0,54,-99.99,,,0.00,0,weatherlink.com 1.10,2013-06-07 11:36:00,
2013-06-07 04:51:00,65.1,48.0,29.76,South,178,0.0,-999.0,55,-99.99,,,0.00,0,weatherlink.com 1.10,2013-06-07 11:51:00,
2013-06-07 05:06:00,64.8,48.0,29.76,South,178,0.0,-999.0,55,-99.99,,,0.00,0,weatherlink.com 1.10,2013-06-07 12:06:00,
2013-06-07 05:21:00,64.5,48.0,29.76,South,178,0.0,-999.0,56,-99.99,,,0.00,0,weatherlink.com 1.10,2013-06-07 12:21:00,
2013-06-07 05:36:00,64.2,48.0,29.76,South,178,0.0,-999.0,56,-99.99,,,0.00,0,weatherlink.com 1.10,2013-06-07 12:36:00,
2013-06-07 05:51:00,63.8,48.0,29.76,South,178,0.0,-999.0,57,-99.99,,,0.00,7,weatherlink.com 1.10,2013-06-07 12:51:00,
2013-06-07 06:07:00,63.4,48.0,29.76,South,178,0.0,-999.0,58,-99.99,,,0.00,16,weatherlink.com 1.10,2013-06-07 13:07:00,
2013-06-07 06:22:00,63.2,48.0,29.76,South,178,0.0,-999.0,58,-99.99,,,0.00,21,weatherlink.com 1.10,2013-06-07 13:22:00,
2013-06-07 06:36:00,63.1,48.0,29.76,South,178,0.0,-999.0,58,-99.99,,,0.00,26,weatherlink.com 1.10,2013-06-07 13:36:00,
2013-06-07 06:51:00,63.2,48.0,29.76,South,178,0.0,-999.0,59,-99.99,,,0.00,32,weatherlink.com 1.10,2013-06-07 13:51:00,
2013-06-07 07:06:00,63.5,49.0,29.76,South,178,0.0,-999.0,60,-99.99,,,0.00,35,weatherlink.com 1.10,2013-06-07 14:06:00,
2013-06-07 07:21:00,63.9,50.0,29.75,South,178,0.0,-999.0,60,-99.99,,,0.00,39,weatherlink.com 1.10,2013-06-07 14:21:00,
2013-06-07 07:37:00,64.4,50.0,29.75,South,178,0.0,-999.0,61,-99.99,,,0.00,58,weatherlink.com 1.10,2013-06-07 14:37:00,
2013-06-07 07:52:00,65.7,53.0,29.75,South,178,0.0,-999.0,63,-99.99,,,0.00,202,weatherlink.com 1.10,2013-06-07 14:52:00,
2013-06-07 08:07:00,68.3,55.0,29.76,South,178,0.0,-999.0,63,-99.99,,,0.00,292,weatherlink.com 1.10,2013-06-07 15:07:00,
2013-06-07 08:22:00,70.7,55.0,29.75,South,178,0.0,-999.0,58,-99.99,,,0.00,339,weatherlink.com 1.10,2013-06-07 15:22:00,
2013-06-07 08:37:00,73.0,56.0,29.75,South,178,0.0,-999.0,55,-99.99,,,0.00,392,weatherlink.com 1.10,2013-06-07 15:37:00,
2013-06-07 08:52:00,75.3,55.0,29.76,South,178,0.0,-999.0,50,-99.99,,,0.00,438,weatherlink.com 1.10,2013-06-07 15:52:00,
2013-06-07 09:07:00,77.5,55.0,29.76,South,179,0.0,-999.0,46,-99.99,,,0.00,489,weatherlink.com 1.10,2013-06-07 16:07:00,
2013-06-07 09:22:00,79.6,54.0,29.75,South,179,0.0,-999.0,42,-99.99,,,0.00,533,weatherlink.com 1.10,2013-06-07 16:22:00,
2013-06-07 09:37:00,81.4,54.0,29.75,South,179,0.0,-999.0,39,-99.99,,,0.00,578,weatherlink.com 1.10,2013-06-07 16:37:00,
2013-06-07 09:52:00,82.9,54.0,29.75,South,179,0.0,-999.0,37,-99.99,,,0.00,622,weatherlink.com 1.10,2013-06-07 16:52:00,
2013-06-07 10:07:00,84.2,54.0,29.75,South,179,0.0,-999.0,35,-99.99,,,0.00,668,weatherlink.com 1.10,2013-06-07 17:07:00,
2013-06-07 10:22:00,85.4,53.0,29.74,South,179,0.0,-999.0,33,-99.99,,,0.00,710,weatherlink.com 1.10,2013-06-07 17:22:00,
2013-06-07 10:38:00,86.6,53.0,29.74,South,179,0.0,-999.0,32,-99.99,,,0.00,749,weatherlink.com 1.10,2013-06-07 17:38:00,
2013-06-07 10:52:00,87.7,53.0,29.74,South,179,0.0,-999.0,30,-99.99,,,0.00,780,weatherlink.com 1.10,2013-06-07 17:52:00,
2013-06-07 11:23:00,89.9,52.0,29.74,South,179,0.0,-999.0,27,-99.99,,,0.00,847,weatherlink.com 1.10,2013-06-07 18:23:00,
2013-06-07 11:38:00,90.6,51.0,29.74,South,179,0.0,-999.0,26,-99.99,,,0.00,863,weatherlink.com 1.10,2013-06-07 18:38:00,
2013-06-07 12:08:00,91.5,52.0,29.73,South,179,0.0,-999.0,26,-99.99,,,0.00,914,weatherlink.com 1.10,2013-06-07 19:08:00,
2013-06-07 12:23:00,92.1,50.0,29.73,South,179,0.0,-999.0,24,-99.99,,,0.00,926,weatherlink.com 1.10,2013-06-07 19:23:00,
2013-06-07 12:38:00,92.6,51.0,29.73,South,179,0.0,-999.0,24,-99.99,,,0.00,944,weatherlink.com 1.10,2013-06-07 19:38:00,
2013-06-07 12:53:00,93.3,51.0,29.73,South,179,0.0,-999.0,24,-99.99,,,0.00,946,weatherlink.com 1.10,2013-06-07 19:53:00,
2013-06-07 13:08:00,93.9,51.0,29.72,South,182,0.0,-999.0,23,-99.99,,,0.00,953,weatherlink.com 1.10,2013-06-07 20:08:00,
2013-06-07 13:53:00,93.4,53.0,29.71,South,180,0.0,-999.0,25,-99.99,,,0.00,947,weatherlink.com 1.10,2013-06-07 20:53:00,
2013-06-07 14:23:00,93.0,52.0,29.71,West,265,0.0,-999.0,25,-99.99,,,0.00,144,weatherlink.com 1.10,2013-06-07 21:23:00,
2013-06-07 14:38:00,93.2,51.0,29.70,West,259,0.0,-999.0,24,-99.99,,,0.00,158,weatherlink.com 1.10,2013-06-07 21:38:00,
2013-06-07 15:08:00,90.6,52.0,29.70,NNW,346,10.0,-999.0,27,-99.99,,,0.00,817,weatherlink.com 1.10,2013-06-07 22:08:00,
2013-06-07 15:23:00,91.5,52.0,29.69,NNW,345,10.0,-999.0,26,-99.99,,,0.00,784,weatherlink.com 1.10,2013-06-07 22:23:00,
2013-06-07 15:53:00,90.8,53.0,29.68,NNW,343,12.0,-999.0,28,-99.99,,,0.00,714,weatherlink.com 1.10,2013-06-07 22:53:00,
2013-06-07 16:23:00,89.3,53.0,29.69,NW,320,7.0,-999.0,29,-99.99,,,0.00,613,weatherlink.com 1.10,2013-06-07 23:23:00,
2013-06-07 16:38:00,88.7,54.0,29.68,NW,325,12.0,-999.0,31,-99.99,,,0.00,563,weatherlink.com 1.10,2013-06-07 23:38:00,
2013-06-07 16:53:00,88.8,54.0,29.68,North,9,12.0,-999.0,31,-99.99,,,0.00,510,weatherlink.com 1.10,2013-06-07 23:53:00,
2013-06-07 17:08:00,88.9,54.0,29.68,NW,311,5.0,-999.0,30,-99.99,,,0.00,473,weatherlink.com 1.10,2013-06-08 00:08:00,
2013-06-07 17:38:00,86.9,55.0,29.69,NW,321,12.0,-999.0,33,-99.99,,,0.00,392,weatherlink.com 1.10,2013-06-08 00:38:00,
2013-06-07 17:53:00,87.2,53.0,29.69,West,277,6.0,-999.0,31,-99.99,,,0.00,318,weatherlink.com 1.10,2013-06-08 00:53:00,
2013-06-07 18:08:00,86.5,55.0,29.69,West,275,7.0,-999.0,34,-99.99,,,0.00,269,weatherlink.com 1.10,2013-06-08 01:08:00,
2013-06-07 18:23:00,85.7,55.0,29.69,NNW,335,10.0,-999.0,35,-99.99,,,0.00,221,weatherlink.com 1.10,2013-06-08 01:23:00,
2013-06-07 18:38:00,85.0,55.0,29.69,West,271,7.0,-999.0,36,-99.99,,,0.00,176,weatherlink.com 1.10,2013-06-08 01:38:00,
2013-06-07 18:56:00,84.0,55.0,29.70,West,269,5.0,-999.0,37,-99.99,,,0.00,118,weatherlink.com 1.10,2013-06-08 01:56:00,
2013-06-07 19:08:00,83.2,55.0,29.70,West,263,9.0,-999.0,38,-99.99,,,0.00,42,weatherlink.com 1.10,2013-06-08 02:08:00,
2013-06-07 19:23:00,81.9,55.0,29.70,West,265,9.0,-999.0,40,-99.99,,,0.00,32,weatherlink.com 1.10,2013-06-08 02:23:00,
2013-06-07 19:39:00,80.7,55.0,29.70,West,268,9.0,-999.0,41,-99.99,,,0.00,21,weatherlink.com 1.10,2013-06-08 02:39:00,
2013-06-07 19:54:00,79.7,55.0,29.70,West,275,9.0,-999.0,42,-99.99,,,0.00,11,weatherlink.com 1.10,2013-06-08 02:54:00,
2013-06-07 20:09:00,78.7,55.0,29.70,West,279,7.0,-999.0,44,-99.99,,,0.00,0,weatherlink.com 1.10,2013-06-08 03:09:00,
2013-06-07 20:24:00,77.9,55.0,29.70,WNW,292,6.0,-999.0,45,-99.99,,,0.00,0,weatherlink.com 1.10,2013-06-08 03:24:00,
2013-06-07 20:42:00,76.7,55.0,29.70,West,259,8.0,-999.0,47,-99.99,,,0.00,0,weatherlink.com 1.10,2013-06-08 03:42:00,
2013-06-07 20:54:00,75.8,55.0,29.71,West,261,6.0,-999.0,49,-99.99,,,0.00,0,weatherlink.com 1.10,2013-06-08 03:54:00,
2013-06-07 21:09:00,75.0,56.0,29.71,WNW,284,5.0,-999.0,51,-99.99,,,0.00,0,weatherlink.com 1.10,2013-06-08 04:09:00,
2013-06-07 21:24:00,74.5,56.0,29.72,WNW,282,5.0,-999.0,52,-99.99,,,0.00,0,weatherlink.com 1.10,2013-06-08 04:24:00,
2013-06-07 21:39:00,73.7,55.0,29.72,WSW,252,1.0,-999.0,52,-99.99,,,0.00,0,weatherlink.com 1.10,2013-06-08 04:39:00,
2013-06-07 21:54:00,72.9,55.0,29.72,WSW,252,4.0,-999.0,53,-99.99,,,0.00,0,weatherlink.com 1.10,2013-06-08 04:54:00,
2013-06-07 22:09:00,72.3,55.0,29.72,WSW,252,4.0,-999.0,54,-99.99,,,0.00,0,weatherlink.com 1.10,2013-06-08 05:09:00,
2013-06-07 22:24:00,72.1,54.0,29.72,WSW,252,6.0,-999.0,54,-99.99,,,0.00,0,weatherlink.com 1.10,2013-06-08 05:24:00,
2013-06-07 22:39:00,72.1,54.0,29.72,WSW,252,3.0,-999.0,53,-99.99,,,0.00,0,weatherlink.com 1.10,2013-06-08 05:39:00,
2013-06-07 22:54:00,71.9,53.0,29.72,West,269,6.0,-999.0,52,-99.99,,,0.00,0,weatherlink.com 1.10,2013-06-08 05:54:00,
2013-06-07 23:09:00,71.9,54.0,29.71,WSW,248,6.0,-999.0,53,-99.99,,,0.00,0,weatherlink.com 1.10,2013-06-08 06:09:00,
2013-06-07 23:24:00,71.9,54.0,29.72,WSW,250,3.0,-999.0,53,-99.99,,,0.00,0,weatherlink.com 1.10,2013-06-08 06:24:00,
2013-06-07 23:39:00,71.7,53.0,29.72,WSW,251,8.0,-999.0,52,-99.99,,,0.00,0,weatherlink.com 1.10,2013-06-08 06:39:00,
2013-06-07 23:54:00,71.8,53.0,29.71,West,266,4.0,-999.0,52,-99.99,,,0.00,0,weatherlink.com 1.10,2013-06-08 06:54:00,